Time;durP1;ratioP1;P1;durP2;ratioP2;P2;SDS_P1;SDS_P2;PMS_P1;PMS_P2;Temp;Humidity;BMP_temperature;BMP_pressure;BME280_temperature;BME280_humidity;BME280_pressure;Samples;Min_cycle;Max_cycle;Signal;HPM_P1;HPM_P2
2023/09/06 00:01:19;;;;;;;1.40;1.00;;;;;;;14.35;100.00;98454.53;1224517;75;2900934;-66
2023/09/06 00:03:51;;;;;;;1.35;1.10;;;;;;;14.24;100.00;98453.16;1224843;75;2918601;-67
2023/09/06 00:06:24;;;;;;;1.25;1.15;;;;;;;14.26;100.00;98447.91;1224790;75;2918889;-70
2023/09/06 00:08:56;;;;;;;0.90;0.90;;;;;;;14.28;100.00;98452.94;1222755;75;2919335;-70
2023/09/06 00:11:29;;;;;;;1.20;1.10;;;;;;;14.19;100.00;98451.06;1224352;75;2916956;-67
2023/09/06 00:14:05;;;;;;;1.50;1.25;;;;;;;14.21;100.00;98450.56;1223787;75;2919191;-65
2023/09/06 00:16:37;;;;;;;1.20;1.05;;;;;;;14.23;100.00;98448.09;1224326;75;2911096;-64
2023/09/06 00:19:10;;;;;;;1.60;1.40;;;;;;;14.17;100.00;98448.03;1224444;75;2913389;-68
2023/09/06 00:21:43;;;;;;;1.30;1.20;;;;;;;14.21;100.00;98451.31;1224582;75;2918898;-65
2023/09/06 00:24:16;;;;;;;1.00;0.90;;;;;;;14.20;100.00;98446.31;1224283;75;2914908;-66
2023/09/06 00:26:49;;;;;;;1.45;1.20;;;;;;;14.15;100.00;98461.53;1223613;75;2925824;-65
2023/09/06 00:29:24;;;;;;;1.20;1.10;;;;;;;14.10;100.00;98453.94;1224410;75;2914966;-65
2023/09/06 00:31:57;;;;;;;2.70;1.25;;;;;;;13.99;100.00;98445.53;1225084;75;2916285;-66
2023/09/06 00:34:31;;;;;;;1.65;1.45;;;;;;;13.92;100.00;98448.69;1224629;75;2913896;-66
2023/09/06 00:37:05;;;;;;;1.30;1.20;;;;;;;13.70;100.00;98449.13;1224901;75;2913339;-66
2023/09/06 00:39:38;;;;;;;2.40;1.45;;;;;;;13.81;100.00;98449.28;1224245;67;2913040;-67
2023/09/06 00:42:11;;;;;;;1.60;1.50;;;;;;;13.93;100.00;98456.47;1225289;75;2917476;-64
2023/09/06 00:44:46;;;;;;;1.40;1.30;;;;;;;13.97;100.00;98453.50;1225048;75;2920602;-66
2023/09/06 00:47:19;;;;;;;0.80;0.80;;;;;;;13.95;100.00;98450.47;1224135;75;2913954;-66
2023/09/06 00:49:51;;;;;;;1.70;1.20;;;;;;;13.92;100.00;98446.69;1225340;75;2915953;-65
2023/09/06 00:52:24;;;;;;;2.60;1.20;;;;;;;13.93;100.00;98447.47;1223088;75;2914990;-67
2023/09/06 00:54:59;;;;;;;1.30;1.20;;;;;;;13.63;100.00;98453.78;1224829;75;2920228;-68
2023/09/06 00:57:33;;;;;;;1.90;1.50;;;;;;;13.70;100.00;98452.63;1225209;75;2912732;-65
2023/09/06 01:00:14;;;;;;;1.50;1.40;;;;;;;13.75;100.00;98451.94;1224026;75;2915413;-69
2023/09/06 01:02:47;;;;;;;1.40;1.30;;;;;;;13.77;100.00;98451.47;1182263;75;6332062;-65
2023/09/06 01:05:22;;;;;;;1.40;1.30;;;;;;;13.73;100.00;98457.16;1225049;75;2912382;-66
2023/09/06 01:07:58;;;;;;;1.40;1.30;;;;;;;13.55;100.00;98449.91;1225077;75;2913596;-69
2023/09/06 01:10:28;;;;;;;1.40;1.30;;;;;;;13.63;100.00;98450.25;1224682;75;2916608;-66
2023/09/06 01:13:01;;;;;;;1.80;1.60;;;;;;;13.33;100.00;98446.81;1226555;75;2819352;-65
2023/09/06 01:15:36;;;;;;;2.20;1.70;;;;;;;13.40;100.00;98454.66;1224669;75;2918240;-66
2023/09/06 01:18:11;;;;;;;1.65;1.45;;;;;;;13.38;100.00;98449.63;1224018;75;2921293;-67
2023/09/06 01:20:52;;;;;;;1.95;1.60;;;;;;;13.38;100.00;98444.13;1225412;75;2915569;-65
2023/09/06 01:23:37;;;;;;;1.70;1.40;;;;;;;13.38;100.00;98443.38;1224513;75;2912896;-66
2023/09/06 01:26:10;;;;;;;1.45;1.35;;;;;;;13.50;100.00;98439.56;1224700;75;2917078;-68
2023/09/06 01:28:43;;;;;;;1.30;1.20;;;;;;;13.43;100.00;98439.97;1224706;75;2924267;-67
2023/09/06 01:31:16;;;;;;;0.95;0.90;;;;;;;13.46;100.00;98441.75;1223776;75;2925855;-69
2023/09/06 01:33:48;;;;;;;1.45;1.35;;;;;;;13.47;100.00;98445.25;1224840;75;2924136;-67
2023/09/06 01:36:21;;;;;;;1.25;1.15;;;;;;;13.36;100.00;98440.34;1225150;75;2917072;-65
2023/09/06 01:38:56;;;;;;;2.25;1.50;;;;;;;13.27;100.00;98440.41;1225217;75;2913774;-66
2023/09/06 01:41:29;;;;;;;3.15;1.40;;;;;;;13.31;100.00;98443.75;1224571;75;2922593;-66
2023/09/06 01:44:01;;;;;;;1.20;1.10;;;;;;;13.28;100.00;98434.47;1223452;75;2918850;-65
2023/09/06 01:46:34;;;;;;;1.40;1.25;;;;;;;13.34;100.00;98442.81;1224108;75;2924905;-65
2023/09/06 01:49:08;;;;;;;1.10;0.90;;;;;;;13.31;100.00;98438.25;1223421;75;2926548;-66
2023/09/06 01:51:41;;;;;;;1.45;1.05;;;;;;;13.23;100.00;98435.13;1224926;75;2928892;-67
2023/09/06 01:54:16;;;;;;;1.80;1.40;;;;;;;13.11;100.00;98436.91;1224264;75;2916094;-68
2023/09/06 01:56:49;;;;;;;1.70;1.60;;;;;;;13.04;100.00;98439.28;1224510;75;2919181;-67
2023/09/06 01:59:21;;;;;;;1.65;1.45;;;;;;;13.15;100.00;98431.22;1223826;75;2917820;-67
2023/09/06 02:01:56;;;;;;;2.15;1.90;;;;;;;13.05;100.00;98427.81;1224587;75;2921885;-68
2023/09/06 02:04:28;;;;;;;2.65;1.95;;;;;;;13.05;100.00;98414.06;1224433;75;2918450;-66
2023/09/06 02:07:03;;;;;;;2.00;1.80;;;;;;;13.07;100.00;98417.09;1224797;75;2919066;-66
2023/09/06 02:09:39;;;;;;;2.15;1.95;;;;;;;13.04;100.00;98420.78;1224129;75;2928075;-69
2023/09/06 02:12:12;;;;;;;2.50;1.95;;;;;;;13.06;100.00;98418.34;1224058;75;2917299;-65
2023/09/06 02:14:45;;;;;;;1.90;1.45;;;;;;;12.93;100.00;98421.34;1224614;75;2923349;-64
2023/09/06 02:17:18;;;;;;;2.15;1.80;;;;;;;12.98;100.00;98411.69;1224043;75;2921910;-68
2023/09/06 02:19:51;;;;;;;2.30;2.00;;;;;;;12.94;100.00;98413.84;1225423;75;2914998;-67
2023/09/06 02:22:23;;;;;;;2.00;1.80;;;;;;;13.05;100.00;98422.31;1225195;75;2915916;-66
2023/09/06 02:24:59;;;;;;;1.75;1.65;;;;;;;13.10;100.00;98416.13;1223784;75;2920136;-66
2023/09/06 02:27:31;;;;;;;1.50;1.30;;;;;;;13.04;100.00;98414.56;1219930;75;3131346;-69
2023/09/06 02:30:07;;;;;;;1.60;1.40;;;;;;;12.93;100.00;98418.59;1225275;75;2915593;-66
2023/09/06 02:32:40;;;;;;;1.40;1.30;;;;;;;12.97;100.00;98410.94;1224896;75;2915400;-67
2023/09/06 02:35:13;;;;;;;1.95;1.60;;;;;;;12.82;100.00;98421.16;1224975;75;2919289;-66
2023/09/06 02:37:46;;;;;;;1.65;1.55;;;;;;;12.72;100.00;98417.75;1223125;75;2914949;-64
2023/09/06 02:40:22;;;;;;;2.35;1.70;;;;;;;12.83;100.00;98417.19;1225111;75;2915119;-65
2023/09/06 02:42:54;;;;;;;1.90;1.65;;;;;;;12.67;100.00;98423.13;1224619;75;2933202;-66
2023/09/06 02:45:36;;;;;;;1.60;1.50;;;;;;;12.61;100.00;98414.78;1224464;75;2912341;-68
2023/09/06 02:48:12;;;;;;;1.60;1.50;;;;;;;12.70;100.00;98422.94;1224372;75;2923232;-66
2023/09/06 02:50:45;;;;;;;1.30;1.20;;;;;;;12.76;100.00;98417.53;1223007;75;2959725;-67
2023/09/06 02:53:22;;;;;;;1.65;1.40;;;;;;;12.83;100.00;98427.41;1224375;75;2913617;-67
2023/09/06 02:55:59;;;;;;;1.50;1.40;;;;;;;12.76;100.00;98412.06;1223810;75;2930859;-66
2023/09/06 02:58:37;;;;;;;1.45;1.35;;;;;;;12.67;100.00;98421.13;1223743;75;2916935;-66
2023/09/06 03:01:19;;;;;;;1.60;1.50;;;;;;;12.66;100.00;98414.13;1225152;67;2917926;-66
2023/09/06 03:03:53;;;;;;;2.15;1.70;;;;;;;12.55;100.00;98417.44;1224872;75;2918450;-68
2023/09/06 03:06:32;;;;;;;1.40;1.30;;;;;;;12.60;100.00;98418.00;1225234;75;2910985;-64
2023/09/06 03:09:07;;;;;;;1.75;1.60;;;;;;;12.48;100.00;98417.78;1224514;75;2920197;-66
2023/09/06 03:11:42;;;;;;;1.65;1.55;;;;;;;12.40;100.00;98416.63;1224407;75;2920458;-67
2023/09/06 03:14:17;;;;;;;1.50;1.35;;;;;;;12.53;100.00;98417.13;1224684;75;2916037;-64
2023/09/06 03:16:53;;;;;;;1.55;1.40;;;;;;;12.46;100.00;98413.97;1225085;75;2916891;-68
2023/09/06 03:19:25;;;;;;;1.45;1.35;;;;;;;12.48;100.00;98414.25;1223303;75;2916902;-64
2023/09/06 03:21:58;;;;;;;2.00;1.35;;;;;;;12.52;100.00;98414.84;1224760;75;2923977;-68
2023/09/06 03:24:31;;;;;;;1.55;1.40;;;;;;;12.52;100.00;98415.59;1224206;75;2915076;-67
2023/09/06 03:27:07;;;;;;;1.85;1.50;;;;;;;12.38;100.00;98421.06;1224753;75;2929184;-66
2023/09/06 03:29:40;;;;;;;1.40;1.30;;;;;;;12.30;100.00;98415.94;1224946;75;2920961;-67
2023/09/06 03:32:13;;;;;;;1.65;1.50;;;;;;;12.28;100.00;98418.38;1224280;75;2919892;-70
2023/09/06 03:34:45;;;;;;;1.90;1.60;;;;;;;12.30;100.00;98426.16;1223642;75;2917827;-64
2023/09/06 03:37:18;;;;;;;1.30;1.20;;;;;;;12.31;100.00;98425.69;1223019;75;2926984;-65
2023/09/06 03:39:53;;;;;;;1.70;1.30;;;;;;;12.40;100.00;98413.13;1224671;75;2921830;-66
2023/09/06 03:42:30;;;;;;;1.80;1.50;;;;;;;12.35;100.00;98426.25;1223397;67;2925212;-66
2023/09/06 03:45:03;;;;;;;3.20;1.20;;;;;;;12.29;100.00;98417.16;1223851;75;2920910;-65
2023/09/06 03:47:36;;;;;;;1.55;1.45;;;;;;;12.38;100.00;98421.06;1223005;75;2916465;-66
2023/09/06 03:50:10;;;;;;;2.05;1.55;;;;;;;12.22;100.00;98419.47;1224434;75;2917774;-68
2023/09/06 03:52:43;;;;;;;1.55;1.35;;;;;;;12.23;100.00;98410.78;1224247;75;2923429;-64
2023/09/06 03:55:16;;;;;;;2.10;1.90;;;;;;;12.19;100.00;98412.19;1224012;75;2919437;-66
2023/09/06 03:57:52;;;;;;;2.00;1.80;;;;;;;12.10;100.00;98407.53;1223958;75;2914916;-65
2023/09/06 04:00:31;;;;;;;2.30;1.60;;;;;;;12.19;100.00;98412.19;1223787;75;2920943;-67
2023/09/06 04:03:03;;;;;;;2.20;1.80;;;;;;;12.15;100.00;98415.13;1224285;75;2922179;-66
2023/09/06 04:05:37;;;;;;;1.95;1.75;;;;;;;12.13;100.00;98425.81;1223531;75;2927584;-66
2023/09/06 04:08:10;;;;;;;2.15;1.95;;;;;;;12.01;100.00;98426.81;1223985;75;2918679;-65
2023/09/06 04:10:44;;;;;;;4.25;1.95;;;;;;;12.01;100.00;98426.81;1224305;75;2910060;-66
2023/09/06 04:13:19;;;;;;;3.40;2.35;;;;;;;11.92;100.00;98424.88;1223844;75;2921323;-64
2023/09/06 04:15:53;;;;;;;3.00;2.40;;;;;;;11.94;100.00;98425.91;1223375;75;2918717;-67
2023/09/06 04:18:27;;;;;;;4.10;2.90;;;;;;;11.89;100.00;98423.81;1222651;75;2946982;-68
2023/09/06 04:21:00;;;;;;;2.90;2.60;;;;;;;11.90;100.00;98421.81;1222761;75;2918898;-65
2023/09/06 04:23:32;;;;;;;2.40;2.20;;;;;;;11.89;100.00;98420.31;1223655;75;2924026;-65
2023/09/06 04:26:06;;;;;;;2.75;2.30;;;;;;;12.16;100.00;98427.63;1222616;75;2926904;-67
2023/09/06 04:28:41;;;;;;;3.25;2.95;;;;;;;12.06;100.00;98428.91;1223075;75;2919120;-64
2023/09/06 04:31:13;;;;;;;4.95;4.10;;;;;;;12.07;100.00;98427.66;1224655;75;2918536;-66
2023/09/06 04:33:46;;;;;;;5.35;4.45;;;;;;;12.16;100.00;98430.34;1222941;75;2921446;-66
2023/09/06 04:36:18;;;;;;;5.45;4.75;;;;;;;12.25;100.00;98435.03;1224369;75;2925786;-66
2023/09/06 04:38:51;;;;;;;5.85;5.25;;;;;;;12.28;100.00;98439.59;1222135;75;2944226;-68
2023/09/06 04:41:23;;;;;;;5.95;5.10;;;;;;;12.34;100.00;98435.72;1223639;75;2917229;-65
2023/09/06 04:43:59;;;;;;;6.15;5.00;;;;;;;12.30;100.00;98434.41;1223351;75;2926154;-68
2023/09/06 04:46:31;;;;;;;4.75;4.10;;;;;;;12.40;100.00;98446.06;1223367;75;2917770;-66
2023/09/06 04:49:04;;;;;;;4.45;3.75;;;;;;;12.31;100.00;98444.91;1223549;75;2922414;-66
2023/09/06 04:51:36;;;;;;;7.75;6.30;;;;;;;12.38;100.00;98443.78;1222401;75;2918677;-67
2023/09/06 04:54:09;;;;;;;12.40;9.60;;;;;;;12.31;100.00;98447.66;1223786;75;2921765;-67
2023/09/06 04:56:42;;;;;;;13.70;11.90;;;;;;;12.40;100.00;98441.34;1223727;75;2927266;-68
2023/09/06 04:59:17;;;;;;;11.20;9.60;;;;;;;12.36;100.00;98440.75;1223374;75;2936109;-67
2023/09/06 05:01:50;;;;;;;12.05;8.00;;;;;;;12.43;100.00;98439.63;1223826;75;2918190;-65
2023/09/06 05:04:23;;;;;;;8.75;6.55;;;;;;;12.35;100.00;98447.47;1223375;75;2918067;-67
2023/09/06 05:06:55;;;;;;;5.80;4.45;;;;;;;12.44;100.00;98441.16;1222262;75;2925722;-67
2023/09/06 05:09:28;;;;;;;7.15;6.30;;;;;;;12.36;100.00;98438.00;1223156;75;2924132;-67
2023/09/06 05:12:00;;;;;;;6.45;4.90;;;;;;;12.38;100.00;98451.25;1223296;75;2922480;-66
2023/09/06 05:14:36;;;;;;;4.85;3.80;;;;;;;12.47;100.00;98451.97;1224035;75;2919397;-65
2023/09/06 05:17:08;;;;;;;4.10;3.30;;;;;;;12.64;100.00;98449.53;1223323;75;2925656;-65
2023/09/06 05:19:41;;;;;;;5.05;2.85;;;;;;;12.65;100.00;98451.06;1223513;75;2922613;-64
2023/09/06 05:22:14;;;;;;;2.55;2.35;;;;;;;12.66;100.00;98452.59;1222849;75;2922915;-68
2023/09/06 05:24:47;;;;;;;2.55;2.05;;;;;;;12.77;100.00;98457.50;1223604;75;2921997;-67
2023/09/06 05:27:21;;;;;;;4.00;2.70;;;;;;;12.77;100.00;98452.03;1223618;75;2922522;-64
2023/09/06 05:29:56;;;;;;;3.85;2.10;;;;;;;12.96;100.00;98442.41;1224404;75;2920831;-66
2023/09/06 05:32:31;;;;;;;2.15;1.75;;;;;;;13.07;100.00;98455.56;1224546;75;2922245;-65
2023/09/06 05:35:04;;;;;;;2.35;1.70;;;;;;;13.12;100.00;98451.41;1222891;75;2924142;-65
2023/09/06 05:37:37;;;;;;;2.25;1.80;;;;;;;13.08;100.00;98448.84;1218627;75;2951312;-66
2023/09/06 05:40:13;;;;;;;1.70;1.60;;;;;;;13.21;100.00;98451.31;1223323;75;2921722;-67
2023/09/06 05:42:46;;;;;;;1.75;1.65;;;;;;;13.33;100.00;98452.31;1224254;75;2917762;-65
2023/09/06 05:45:23;;;;;;;3.25;1.75;;;;;;;13.29;100.00;98446.97;1223689;75;2919009;-63
2023/09/06 05:47:56;;;;;;;2.35;2.00;;;;;;;13.57;100.00;98443.94;1224193;75;2922393;-68
2023/09/06 05:50:29;;;;;;;1.85;1.70;;;;;;;13.64;100.00;98443.53;1224558;75;2937290;-69
2023/09/06 05:53:02;;;;;;;3.15;2.50;;;;;;;13.69;100.00;98448.38;1223434;75;2914003;-65
2023/09/06 05:55:35;;;;;;;5.70;4.05;;;;;;;13.62;100.00;98440.50;1224624;75;2922161;-64
2023/09/06 05:58:07;;;;;;;5.25;4.65;;;;;;;13.73;100.00;98448.16;1223583;75;2916683;-67
2023/09/06 06:00:43;;;;;;;6.65;4.50;;;;;;;13.83;100.00;98444.81;1224305;75;2921496;-66
2023/09/06 06:03:18;;;;;;;8.35;4.90;;;;;;;13.97;100.00;98448.00;1224160;75;2930752;-64
2023/09/06 06:05:51;;;;;;;5.55;4.00;;;;;;;14.21;100.00;98450.56;1223704;75;2921988;-66
2023/09/06 06:08:24;;;;;;;6.20;4.85;;;;;;;14.29;100.00;98451.69;1223936;75;2921250;-64
2023/09/06 06:10:56;;;;;;;4.75;3.80;;;;;;;14.53;100.00;98447.97;1223984;75;2915648;-67
2023/09/06 06:13:29;;;;;;;9.05;4.40;;;;;;;14.65;100.00;98453.16;1224674;75;2922942;-65
2023/09/06 06:16:08;;;;;;;4.60;3.70;;;;;;;14.78;100.00;98458.31;1225315;75;2920213;-65
2023/09/06 06:18:40;;;;;;;7.55;4.95;;;;;;;14.75;100.00;98453.78;1224264;75;2921194;-66
2023/09/06 06:21:14;;;;;;;5.00;4.35;;;;;;;14.96;100.00;98462.78;1224343;75;2919235;-67
2023/09/06 06:23:47;;;;;;;6.80;4.00;;;;;;;15.12;100.00;98453.13;1224380;75;2925878;-68
2023/09/06 06:26:21;;;;;;;5.20;4.55;;;;;;;15.24;100.00;98457.50;1224586;75;2921394;-66
2023/09/06 06:28:54;;;;;;;7.90;5.60;;;;;;;15.42;100.00;98452.91;1223359;75;2931119;-64
2023/09/06 06:31:29;;;;;;;6.60;5.00;;;;;;;15.53;100.00;98452.97;1224781;75;2924678;-67
2023/09/06 06:34:02;;;;;;;8.20;5.50;;;;;;;15.49;100.00;98455.97;1225293;75;2918528;-67
2023/09/06 06:36:35;;;;;;;5.90;5.15;;;;;;;15.72;100.00;98467.94;1224890;75;2919494;-67
2023/09/06 06:39:10;;;;;;;6.65;5.65;;;;;;;15.79;100.00;98460.47;1223686;75;2923612;-66
2023/09/06 06:41:44;;;;;;;6.80;4.80;;;;;;;16.15;100.00;98458.94;1224317;75;2954278;-67
2023/09/06 06:44:16;;;;;;;5.30;4.00;;;;;;;16.67;100.00;98458.66;1224113;75;2921645;-65
2023/09/06 06:46:51;;;;;;;5.35;3.70;;;;;;;17.01;100.00;98467.09;1224320;75;2919592;-67
2023/09/06 06:49:24;;;;;;;11.70;8.45;;;;;;;16.76;100.00;98465.97;1224023;75;2922949;-65
2023/09/06 06:51:56;;;;;;;9.50;6.85;;;;;;;17.13;100.00;98465.84;1224157;75;2922660;-67
2023/09/06 06:54:29;;;;;;;6.35;5.35;;;;;;;17.09;100.00;98465.31;1223848;75;2929025;-65
2023/09/06 06:57:02;;;;;;;4.35;3.70;;;;;;;17.63;100.00;98470.66;1225093;75;2931516;-66
2023/09/06 06:59:34;;;;;;;3.95;3.20;;;;;;;18.07;100.00;98460.06;1222841;75;2926312;-66
2023/09/06 07:02:10;;;;;;;4.00;3.10;;;;;;;18.24;100.00;98465.53;1224182;75;2921166;-66
2023/09/06 07:04:42;;;;;;;5.55;4.25;;;;;;;17.98;100.00;98472.16;1224175;75;2924014;-66
2023/09/06 07:07:15;;;;;;;7.65;4.30;;;;;;;18.24;100.00;98468.31;1222881;75;2924759;-66
2023/09/06 07:09:47;;;;;;;4.50;3.70;;;;;;;18.59;95.36;98464.16;1224229;75;2928058;-69
2023/09/06 07:12:21;;;;;;;3.85;3.00;;;;;;;18.96;98.64;98463.00;1224520;75;2924941;-68
2023/09/06 07:14:55;;;;;;;3.65;3.10;;;;;;;18.98;95.42;98464.00;1224550;75;2926056;-66
2023/09/06 07:17:30;;;;;;;4.70;3.15;;;;;;;19.09;92.32;98460.38;1223662;75;2921514;-66
2023/09/06 07:20:04;;;;;;;6.10;3.40;;;;;;;19.22;87.94;98460.56;1223665;75;2920893;-65
2023/09/06 07:22:37;;;;;;;7.60;4.10;;;;;;;19.13;82.96;98449.75;1223984;75;2930610;-69
2023/09/06 07:25:13;;;;;;;6.20;3.30;;;;;;;19.12;83.55;98454.56;1223632;75;2929895;-65
2023/09/06 07:27:46;;;;;;;7.10;3.80;;;;;;;18.78;82.79;98461.56;1223659;75;2926176;-66
2023/09/06 07:30:19;;;;;;;6.00;3.55;;;;;;;19.36;84.63;98456.66;1224125;75;2923740;-66
2023/09/06 07:32:54;;;;;;;7.40;4.00;;;;;;;19.23;81.97;98456.50;1224460;75;2916227;-69
2023/09/06 07:35:27;;;;;;;5.05;3.50;;;;;;;19.37;80.01;98457.41;1224294;75;2925098;-69
2023/09/06 07:38:00;;;;;;;5.45;3.55;;;;;;;19.72;78.54;98462.22;1224364;75;2914590;-67
2023/09/06 07:40:32;;;;;;;4.90;3.50;;;;;;;19.73;77.59;98458.16;1224775;75;2927518;-67
2023/09/06 07:43:05;;;;;;;4.20;3.25;;;;;;;19.79;79.04;98458.09;1223172;75;2925121;-67
2023/09/06 07:45:38;;;;;;;5.80;4.20;;;;;;;19.89;77.70;98456.50;1222906;75;2930376;-68
2023/09/06 07:48:13;;;;;;;4.40;3.65;;;;;;;20.30;77.77;98457.56;1223559;75;2922765;-66
2023/09/06 07:50:46;;;;;;;8.90;6.45;;;;;;;20.47;74.46;98462.91;1223720;75;2924431;-66
2023/09/06 07:53:18;;;;;;;6.80;4.55;;;;;;;20.70;75.50;98458.63;1224085;75;2927363;-65
2023/09/06 07:55:55;;;;;;;8.35;3.80;;;;;;;20.71;74.27;98456.59;1224223;75;2923133;-65
2023/09/06 07:58:28;;;;;;;6.60;4.90;;;;;;;20.51;72.33;98457.81;1223581;75;2924328;-70
2023/09/06 08:01:00;;;;;;;6.80;4.80;;;;;;;21.01;71.69;98457.19;1224970;75;2916902;-66
2023/09/06 08:03:37;;;;;;;6.05;3.90;;;;;;;20.80;70.29;98464.56;1223440;75;2925048;-69
2023/09/06 08:06:10;;;;;;;4.95;3.60;;;;;;;20.58;70.81;98462.81;1224223;75;2927454;-67
2023/09/06 08:08:42;;;;;;;8.80;3.85;;;;;;;21.31;70.36;98466.63;1223462;75;2926363;-68
2023/09/06 08:11:15;;;;;;;3.60;2.80;;;;;;;21.22;68.61;98470.56;1223262;75;2925663;-67
2023/09/06 08:13:48;;;;;;;5.35;3.40;;;;;;;20.98;70.44;98463.81;1223790;75;2957059;-67
2023/09/06 08:16:21;;;;;;;3.85;3.15;;;;;;;21.52;70.19;98467.56;1223767;75;2920511;-68
2023/09/06 08:18:57;;;;;;;4.25;3.05;;;;;;;21.83;67.73;98468.09;1223787;75;2927533;-66
2023/09/06 08:21:29;;;;;;;4.60;2.85;;;;;;;22.22;67.27;98470.16;1225093;75;2919884;-68
2023/09/06 08:24:02;;;;;;;4.20;2.85;;;;;;;21.76;65.39;98466.66;1223433;75;2928169;-66
2023/09/06 08:26:37;;;;;;;4.45;3.05;;;;;;;22.23;65.58;98471.69;1222964;75;2927195;-68
2023/09/06 08:29:11;;;;;;;5.45;2.95;;;;;;;21.74;63.79;98468.50;1222709;75;2929462;-67
2023/09/06 08:31:43;;;;;;;3.30;2.35;;;;;;;22.02;63.29;98462.44;1224110;75;2925355;-67
2023/09/06 08:34:19;;;;;;;4.65;3.00;;;;;;;21.85;63.75;98457.91;1223534;75;2925865;-66
2023/09/06 08:36:52;;;;;;;4.85;2.80;;;;;;;22.06;63.38;98460.81;1224725;75;2919792;-65
2023/09/06 08:39:24;;;;;;;5.25;3.50;;;;;;;22.31;63.90;98469.75;1224242;75;2926607;-67
2023/09/06 08:41:59;;;;;;;4.15;2.35;;;;;;;22.73;61.48;98471.97;1222775;75;2928122;-67
2023/09/06 08:44:35;;;;;;;2.80;2.10;;;;;;;23.23;59.40;98466.56;1224469;75;2922076;-69
2023/09/06 08:47:13;;;;;;;4.35;2.20;;;;;;;23.54;59.28;98471.16;1223268;75;2926858;-67
2023/09/06 08:49:50;;;;;;;4.05;2.20;;;;;;;23.76;59.84;98464.31;1222304;75;2932044;-70
2023/09/06 08:52:23;;;;;;;2.15;1.60;;;;;;;24.02;57.59;98468.94;1219348;75;3198812;-64
2023/09/06 08:54:56;;;;;;;4.15;3.10;;;;;;;23.50;59.64;98472.78;1224497;75;2922691;-69
2023/09/06 08:57:31;;;;;;;3.85;2.60;;;;;;;23.97;58.60;98466.28;1223404;75;2931132;-66
2023/09/06 09:00:08;;;;;;;5.80;2.45;;;;;;;24.52;56.54;98466.09;1224064;75;2921121;-68
2023/09/06 09:02:42;;;;;;;2.60;2.00;;;;;;;24.22;56.82;98461.03;1219956;75;3044529;-64
2023/09/06 09:05:18;;;;;;;2.35;2.15;;;;;;;24.58;57.01;98465.91;1223099;75;2924602;-68
2023/09/06 09:07:52;;;;;;;5.80;3.20;;;;;;;24.29;58.54;98470.78;1223721;75;2924533;-68
2023/09/06 09:10:26;;;;;;;4.20;2.60;;;;;;;24.20;57.69;98460.88;1223729;75;2922981;-67
2023/09/06 09:13:00;;;;;;;3.35;2.55;;;;;;;25.38;56.95;98462.28;1224631;75;2925873;-68
2023/09/06 09:15:36;;;;;;;4.05;2.65;;;;;;;25.06;54.71;98460.66;1224391;75;2922332;-67
2023/09/06 09:18:17;;;;;;;5.85;2.40;;;;;;;25.40;51.82;98468.03;1224278;75;2922005;-68
2023/09/06 09:20:54;;;;;;;3.90;2.45;;;;;;;25.16;54.11;98472.09;1224538;75;2920470;-66
2023/09/06 09:23:28;;;;;;;2.55;2.05;;;;;;;26.13;52.10;98476.88;1223686;75;2925098;-67
2023/09/06 09:26:01;;;;;;;3.85;2.10;;;;;;;25.64;53.70;98463.94;1224564;75;2923194;-69
2023/09/06 09:28:36;;;;;;;3.60;2.25;;;;;;;25.88;53.27;98457.06;1223251;75;2955780;-68
2023/09/06 09:31:09;;;;;;;3.40;2.15;;;;;;;26.38;51.93;98459.41;1224503;75;2926139;-69
2023/09/06 09:33:43;;;;;;;4.30;2.20;;;;;;;26.64;52.16;98455.41;1225386;75;2916106;-66
2023/09/06 09:36:21;;;;;;;3.95;2.45;;;;;;;26.44;51.93;98462.75;1224823;75;2915724;-67
2023/09/06 09:38:54;;;;;;;3.05;2.00;;;;;;;28.00;50.21;98448.72;1224365;75;2919052;-64
2023/09/06 09:41:27;;;;;;;2.95;2.15;;;;;;;28.04;51.50;98447.00;1223516;75;2926209;-68
2023/09/06 09:44:15;;;;;;;2.15;1.85;;;;;;;27.73;49.63;98445.75;1224534;75;2917529;-67
2023/09/06 09:46:48;;;;;;;;;;;;;;;26.96;51.16;98455.44;1224412;75;2919304;-68
2023/09/06 09:49:23;;;;;;;3.90;2.20;;;;;;;26.82;52.65;98456.25;1224263;75;2915954;-68
2023/09/06 09:51:58;;;;;;;7.50;2.50;;;;;;;26.95;51.01;98450.38;1222786;75;2925387;-67
2023/09/06 09:54:33;;;;;;;4.05;1.90;;;;;;;27.43;49.64;98443.94;1222969;75;2914202;-70
2023/09/06 09:57:08;;;;;;;2.90;1.95;;;;;;;27.75;48.76;98451.53;1222747;75;2926008;-65
2023/09/06 09:59:43;;;;;;;3.20;1.80;;;;;;;28.32;48.39;98442.19;1224270;75;2924072;-67
2023/09/06 10:02:15;;;;;;;2.70;1.85;;;;;;;29.14;46.99;98443.06;1222674;75;2919491;-70
2023/09/06 10:04:50;;;;;;;4.10;1.95;;;;;;;28.21;47.16;98448.31;1224458;75;2933333;-66
2023/09/06 10:07:27;;;;;;;2.35;1.65;;;;;;;27.40;48.18;98452.19;1222836;75;2925235;-69
2023/09/06 10:10:00;;;;;;;2.80;1.80;;;;;;;28.95;46.59;98445.75;1225067;75;2921790;-67
2023/09/06 10:12:33;;;;;;;1.65;1.50;;;;;;;29.11;45.71;98441.44;1224507;75;2926912;-69
2023/09/06 10:15:08;;;;;;;4.85;1.80;;;;;;;28.32;45.87;98442.19;1223934;75;2918747;-68
2023/09/06 10:17:41;;;;;;;2.55;1.95;;;;;;;28.89;45.58;98443.22;1224282;75;2921224;-67
2023/09/06 10:20:15;;;;;;;3.10;2.10;;;;;;;28.50;46.69;98439.38;1223851;75;2921663;-67
2023/09/06 10:22:52;;;;;;;2.60;1.90;;;;;;;29.57;43.95;98428.69;1224003;75;2928868;-69
2023/09/06 10:25:25;;;;;;;4.95;1.80;;;;;;;29.13;46.85;98432.38;1224951;75;2927090;-64
2023/09/06 10:27:59;;;;;;;4.20;1.95;;;;;;;28.57;46.80;98427.28;1223890;75;2926782;-66
2023/09/06 10:30:45;;;;;;;3.60;1.95;;;;;;;28.31;47.18;98423.81;1224881;75;2913598;-68
2023/09/06 10:33:56;;;;;;;3.30;1.75;;;;;;;28.26;47.49;98427.59;1224408;75;2924983;-67
2023/09/06 10:36:30;;;;;;;1.90;1.60;;;;;;;27.62;48.07;98427.28;1224864;75;2919527;-66
2023/09/06 10:39:18;;;;;;;1.95;1.60;;;;;;;28.94;47.35;98422.47;1224296;75;2920155;-69
2023/09/06 10:42:22;;;;;;;2.05;1.55;;;;;;;30.07;45.04;98419.75;1224326;75;2918649;-66
2023/09/06 10:45:18;;;;;;;3.05;2.50;;;;;;;29.59;44.26;98421.13;1222840;75;2932013;-71
2023/09/06 10:47:50;;;;;;;3.10;1.70;;;;;;;29.37;45.11;98419.41;1223650;75;2925657;-69
2023/09/06 10:50:26;;;;;;;2.85;1.70;;;;;;;28.96;45.30;98419.03;1223173;75;2930418;-66
2023/09/06 10:53:02;;;;;;;2.35;1.50;;;;;;;30.34;44.16;98422.44;1224354;75;2935040;-66
2023/09/06 10:55:48;;;;;;;2.15;1.40;;;;;;;29.81;43.70;98415.69;1223083;75;2924359;-67
2023/09/06 10:58:26;;;;;;;3.15;1.95;;;;;;;29.85;44.34;98416.00;1223666;75;2923814;-66
2023/09/06 11:01:20;;;;;;;2.95;1.80;;;;;;;29.38;45.03;98413.19;1224160;75;2919092;-69
2023/09/06 11:03:55;;;;;;;4.55;1.75;;;;;;;28.32;44.25;98416.09;1224621;75;2920340;-65
2023/09/06 11:06:27;;;;;;;2.15;1.55;;;;;;;28.56;44.39;98409.63;1223196;75;2917560;-66
2023/09/06 11:09:10;;;;;;;2.90;1.45;;;;;;;29.26;45.68;98407.34;1223297;75;2918272;-67
2023/09/06 11:11:53;;;;;;;3.15;1.55;;;;;;;28.74;45.40;98407.50;1224237;75;2921668;-66
2023/09/06 11:14:32;;;;;;;3.50;1.40;;;;;;;29.46;44.36;98408.16;1220207;75;2989157;-68
2023/09/06 11:17:04;;;;;;;1.40;1.30;;;;;;;30.07;43.15;98402.81;1223179;75;2925905;-67
2023/09/06 11:19:39;;;;;;;3.05;1.65;;;;;;;29.17;43.49;98402.41;1223275;75;2924049;-70
2023/09/06 11:22:13;;;;;;;1.95;1.25;;;;;;;30.09;42.86;98397.28;1222666;75;2920943;-69
2023/09/06 11:24:48;;;;;;;1.95;1.55;;;;;;;28.11;45.84;98396.81;1224426;75;2922864;-68
2023/09/06 11:27:29;;;;;;;1.60;1.35;;;;;;;26.83;47.19;98396.69;1222926;75;2919772;-71
2023/09/06 11:30:10;;;;;;;2.85;1.90;;;;;;;27.06;46.67;98399.38;1223910;75;2939857;-66
2023/09/06 11:32:44;;;;;;;1.60;1.25;;;;;;;27.38;45.66;98395.78;1224063;75;2938070;-67
2023/09/06 11:35:17;;;;;;;3.00;1.40;;;;;;;27.32;46.16;98388.88;1223911;75;2925934;-68
2023/09/06 11:37:53;;;;;;;1.95;1.45;;;;;;;27.36;45.86;98389.97;1224054;75;2925475;-65
2023/09/06 11:40:28;;;;;;;2.90;1.20;;;;;;;27.97;45.13;98385.13;1223356;75;2922847;-67
2023/09/06 11:43:08;;;;;;;2.35;1.45;;;;;;;28.45;45.56;98390.38;1224790;75;2920376;-65
2023/09/06 11:45:43;;;;;;;1.60;1.30;;;;;;;29.02;45.99;98389.25;1225351;75;2916848;-68